Time;durP1;ratioP1;P1;durP2;ratioP2;P2;SDS_P1;SDS_P2;PMS_P1;PMS_P2;Temp;Humidity;BMP_temperature;BMP_pressure;BME280_temperature;BME280_humidity;BME280_pressure;Samples;Min_cycle;Max_cycle;Signal;HPM_P1;HPM_P2
2021/08/16 00:00:46;;;;;;;7.97;2.00;;;;;;;;;;5112492;28;20613;-77
2021/08/16 00:03:13;;;;;;;7.70;2.40;;;;;;;;;;5112295;28;20289;-77
2021/08/16 00:05:40;;;;;;;8.63;2.53;;;;;;;;;;5112301;28;20197;-77
2021/08/16 00:08:08;;;;;;;8.00;2.37;;;;;;;;;;5112104;28;20637;-77
2021/08/16 00:10:35;;;;;;;9.67;2.00;;;;;;;;;;5112695;28;20204;-77
2021/08/16 00:13:02;;;;;;;8.87;2.30;;;;;;;;;;5131959;28;20292;-77
2021/08/16 00:15:30;;;;;;;6.27;2.00;;;;;;;;;;5132953;27;20295;-77
2021/08/16 00:18:00;;;;;;;6.60;2.27;;;;;;;;;;5132929;27;20197;-77
2021/08/16 00:20:27;;;;;;;10.77;2.27;;;;;;;;;;5132898;27;20228;-77
2021/08/16 00:22:54;;;;;;;7.00;2.30;;;;;;;;;;5132633;27;20278;-77
2021/08/16 00:25:22;;;;;;;6.40;2.60;;;;;;;;;;5132533;27;20280;-77
2021/08/16 00:27:49;;;;;;;8.20;2.00;;;;;;;;;;5132822;27;20736;-77
2021/08/16 00:30:17;;;;;;;8.30;2.00;;;;;;;;;;5132797;27;20280;-77
2021/08/16 00:32:44;;;;;;;7.87;2.30;;;;;;;;;;5132830;27;20229;-77
2021/08/16 00:35:13;;;;;;;7.60;2.23;;;;;;;;;;5132745;27;20193;-77
2021/08/16 00:37:40;;;;;;;7.17;2.30;;;;;;;;;;5132486;27;20292;-77
2021/08/16 00:40:08;;;;;;;8.10;2.27;;;;;;;;;;5132496;27;20315;-77
2021/08/16 00:42:35;;;;;;;6.67;2.37;;;;;;;;;;5132991;27;20284;-77
2021/08/16 00:45:03;;;;;;;6.00;2.60;;;;;;;;;;5132625;27;20380;-77
2021/08/16 00:47:31;;;;;;;8.33;2.47;;;;;;;;;;5132596;27;20303;-77
2021/08/16 00:49:58;;;;;;;7.80;2.00;;;;;;;;;;5132270;27;20197;-77
2021/08/16 00:52:27;;;;;;;10.07;2.80;;;;;;;;;;5136336;27;20284;-77
2021/08/16 00:54:54;;;;;;;6.03;2.20;;;;;;;;;;5136263;27;20239;-77
2021/08/16 00:57:22;;;;;;;6.77;2.50;;;;;;;;;;5136250;27;20209;-77
2021/08/16 00:59:49;;;;;;;5.67;2.60;;;;;;;;;;5136155;27;20231;-77
2021/08/16 01:02:16;;;;;;;4.83;1.90;;;;;;;;;;5136663;27;20288;-77
2021/08/16 01:04:43;;;;;;;5.53;2.50;;;;;;;;;;5136346;27;20648;-77
2021/08/16 01:07:11;;;;;;;10.53;2.73;;;;;;;;;;5136248;27;20197;-77
2021/08/16 01:09:39;;;;;;;7.70;2.50;;;;;;;;;;5136566;27;20255;-77
2021/08/16 01:12:07;;;;;;;7.40;2.40;;;;;;;;;;5135971;27;20660;-77
2021/08/16 01:14:34;;;;;;;7.50;2.43;;;;;;;;;;5135954;27;20284;-77
2021/08/16 01:17:02;;;;;;;9.53;3.00;;;;;;;;;;5136245;27;20193;-77
2021/08/16 01:19:29;;;;;;;8.23;2.40;;;;;;;;;;5116117;27;20289;-77
2021/08/16 01:21:56;;;;;;;10.33;3.20;;;;;;;;;;5114606;28;20200;-77
2021/08/16 01:24:24;;;;;;;7.10;2.40;;;;;;;;;;5115486;28;20305;-77
2021/08/16 01:26:52;;;;;;;6.40;2.33;;;;;;;;;;5115194;28;20297;-77
2021/08/16 01:29:21;;;;;;;7.23;2.57;;;;;;;;;;5115573;28;20293;-77
2021/08/16 01:31:48;;;;;;;8.13;3.00;;;;;;;;;;5115318;28;20235;-77
2021/08/16 01:34:16;;;;;;;10.97;2.63;;;;;;;;;;5114960;28;20328;-77
2021/08/16 01:36:44;;;;;;;10.73;2.73;;;;;;;;;;5115264;28;20289;-77
2021/08/16 01:39:12;;;;;;;8.77;2.70;;;;;;;;;;5113976;28;20248;-77
2021/08/16 01:41:39;;;;;;;6.80;3.10;;;;;;;;;;5114982;28;20308;-77
2021/08/16 01:44:14;;;;;;;9.47;3.20;;;;;;;;;;5114901;28;20653;-77
2021/08/16 01:46:41;;;;;;;7.50;2.60;;;;;;;;;;5114938;28;20660;-77
2021/08/16 01:49:09;;;;;;;9.10;2.70;;;;;;;;;;5114658;27;20376;-78
2021/08/16 01:51:36;;;;;;;6.37;2.97;;;;;;;;;;5114842;28;20198;-77
2021/08/16 01:54:04;;;;;;;10.07;2.67;;;;;;;;;;5114525;28;20265;-77
2021/08/16 01:56:31;;;;;;;8.17;2.53;;;;;;;;;;5114779;28;20220;-77
2021/08/16 01:58:58;;;;;;;7.23;2.53;;;;;;;;;;5115148;28;20304;-77
2021/08/16 02:01:27;;;;;;;5.47;2.53;;;;;;;;;;5114547;28;20320;-78
2021/08/16 02:03:54;;;;;;;7.30;2.43;;;;;;;;;;5114604;28;20289;-77
2021/08/16 02:06:22;;;;;;;7.70;2.73;;;;;;;;;;5114779;28;20201;-77
2021/08/16 02:08:49;;;;;;;9.70;3.00;;;;;;;;;;5114594;28;20224;-77
2021/08/16 02:11:17;;;;;;;7.73;2.67;;;;;;;;;;5114547;28;20289;-77
2021/08/16 02:13:44;;;;;;;8.17;2.80;;;;;;;;;;5114439;28;20204;-77
2021/08/16 02:16:12;;;;;;;7.67;2.80;;;;;;;;;;5114686;28;20194;-77
2021/08/16 02:18:41;;;;;;;8.17;2.83;;;;;;;;;;5113972;27;20204;-76
2021/08/16 02:21:09;;;;;;;6.10;2.77;;;;;;;;;;5114124;27;20232;-77
2021/08/16 02:23:36;;;;;;;6.87;2.77;;;;;;;;;;5114140;28;20657;-77
2021/08/16 02:26:03;;;;;;;9.27;3.17;;;;;;;;;;5114349;27;20281;-77
2021/08/16 02:28:30;;;;;;;6.90;3.20;;;;;;;;;;5113967;28;20299;-77
2021/08/16 02:30:57;;;;;;;5.53;2.80;;;;;;;;;;5114474;28;20284;-77
2021/08/16 02:33:24;;;;;;;5.90;2.60;;;;;;;;;;5113641;28;20293;-77
2021/08/16 02:35:53;;;;;;;6.87;2.80;;;;;;;;;;5114185;28;20293;-77
2021/08/16 02:38:20;;;;;;;9.83;3.00;;;;;;;;;;5113911;28;20202;-77
2021/08/16 02:40:47;;;;;;;6.20;2.63;;;;;;;;;;5114144;28;20332;-77
2021/08/16 02:43:15;;;;;;;7.27;3.13;;;;;;;;;;5112546;28;20242;-77
2021/08/16 02:45:42;;;;;;;9.87;3.10;;;;;;;;;;5113839;28;20290;-77
2021/08/16 02:48:09;;;;;;;8.77;3.03;;;;;;;;;;5113846;27;20194;-77
2021/08/16 02:50:36;;;;;;;11.80;3.60;;;;;;;;;;5113822;27;20284;-77
2021/08/16 02:53:05;;;;;;;9.07;3.10;;;;;;;;;;5113435;28;20641;-78
2021/08/16 02:55:32;;;;;;;7.83;3.50;;;;;;;;;;5113463;28;20320;-77
2021/08/16 02:57:59;;;;;;;9.50;3.33;;;;;;;;;;5113669;28;20289;-77
2021/08/16 03:00:26;;;;;;;9.93;3.30;;;;;;;;;;5113046;27;20224;-77
2021/08/16 03:02:54;;;;;;;6.73;2.87;;;;;;;;;;5113336;28;20281;-77
2021/08/16 03:05:21;;;;;;;9.67;3.67;;;;;;;;;;5113503;28;20297;-77
2021/08/16 03:07:50;;;;;;;12.73;3.40;;;;;;;;;;5113414;28;20673;-77
2021/08/16 03:10:18;;;;;;;6.70;3.40;;;;;;;;;;5113762;27;20229;-77
2021/08/16 03:12:45;;;;;;;9.10;3.27;;;;;;;;;;5113038;28;20285;-77
2021/08/16 03:15:13;;;;;;;10.83;3.00;;;;;;;;;;5112892;28;20266;-78
2021/08/16 03:17:40;;;;;;;6.30;3.10;;;;;;;;;;5113526;28;20225;-77
2021/08/16 03:20:08;;;;;;;8.20;3.23;;;;;;;;;;5113395;28;20244;-78
2021/08/16 03:22:36;;;;;;;11.77;3.37;;;;;;;;;;5113175;28;20205;-78
2021/08/16 03:25:03;;;;;;;9.30;3.10;;;;;;;;;;5113210;28;20732;-78
2021/08/16 03:27:32;;;;;;;7.27;3.20;;;;;;;;;;5113250;28;20194;-77
2021/08/16 03:30:01;;;;;;;7.43;3.10;;;;;;;;;;5112472;28;20681;-77
2021/08/16 03:32:29;;;;;;;8.23;3.10;;;;;;;;;;5112760;28;20576;-78
2021/08/16 03:34:56;;;;;;;5.17;2.90;;;;;;;;;;5112991;28;20634;-77
2021/08/16 03:37:23;;;;;;;7.77;3.10;;;;;;;;;;5113140;28;20288;-77
2021/08/16 03:39:50;;;;;;;5.63;3.20;;;;;;;;;;5113026;28;20542;-77
2021/08/16 03:42:18;;;;;;;8.03;3.37;;;;;;;;;;5113023;28;20316;-77
2021/08/16 03:44:46;;;;;;;7.80;3.30;;;;;;;;;;5112350;28;20240;-77
2021/08/16 03:47:13;;;;;;;6.13;3.07;;;;;;;;;;5112820;28;20649;-78
2021/08/16 03:49:40;;;;;;;9.07;3.40;;;;;;;;;;5112731;28;20679;-78
2021/08/16 03:52:08;;;;;;;5.30;2.90;;;;;;;;;;5112573;28;20288;-77
2021/08/16 03:54:35;;;;;;;6.57;3.17;;;;;;;;;;5112600;28;20265;-77
2021/08/16 03:57:02;;;;;;;8.47;3.33;;;;;;;;;;5112847;28;20300;-77
2021/08/16 03:59:29;;;;;;;7.07;3.40;;;;;;;;;;5112691;28;20232;-77
2021/08/16 04:01:58;;;;;;;6.33;3.20;;;;;;;;;;5111372;28;20229;-77
2021/08/16 04:04:25;;;;;;;7.90;3.30;;;;;;;;;;5112849;28;20301;-78
2021/08/16 04:06:53;;;;;;;7.87;3.57;;;;;;;;;;5112653;28;20284;-78
2021/08/16 04:09:20;;;;;;;11.17;3.77;;;;;;;;;;5112709;28;20233;-77
2021/08/16 04:11:47;;;;;;;9.33;3.53;;;;;;;;;;5112341;28;20225;-76
2021/08/16 04:14:14;;;;;;;8.57;3.50;;;;;;;;;;5112113;28;20288;-77
2021/08/16 04:16:42;;;;;;;7.50;3.27;;;;;;;;;;5112715;28;20292;-78
2021/08/16 04:19:11;;;;;;;5.67;3.40;;;;;;;;;;5112571;28;20202;-77
2021/08/16 04:21:38;;;;;;;7.23;3.53;;;;;;;;;;5120056;27;20235;-78
2021/08/16 04:24:05;;;;;;;7.70;3.53;;;;;;;;;;5133076;27;20193;-77
2021/08/16 04:26:32;;;;;;;10.07;3.50;;;;;;;;;;5137130;27;20579;-78
2021/08/16 04:29:00;;;;;;;7.57;3.63;;;;;;;;;;5136891;27;20293;-78
2021/08/16 04:31:27;;;;;;;8.40;3.80;;;;;;;;;;5137350;27;20283;-77
2021/08/16 04:33:54;;;;;;;7.90;3.83;;;;;;;;;;5136013;27;20280;-77
2021/08/16 04:36:22;;;;;;;6.23;3.40;;;;;;;;;;5136943;27;20283;-77
2021/08/16 04:38:50;;;;;;;8.63;3.70;;;;;;;;;;5136798;27;20236;-78
2021/08/16 04:41:17;;;;;;;6.77;3.60;;;;;;;;;;5136939;27;20227;-78
2021/08/16 04:43:44;;;;;;;9.13;3.40;;;;;;;;;;5136547;27;20292;-78
2021/08/16 04:46:12;;;;;;;6.47;3.60;;;;;;;;;;5136872;27;20253;-77
2021/08/16 04:48:39;;;;;;;7.50;3.50;;;;;;;;;;5136226;27;20201;-78
2021/08/16 04:51:07;;;;;;;6.90;3.27;;;;;;;;;;5135214;27;20198;-77
2021/08/16 04:53:35;;;;;;;6.60;3.37;;;;;;;;;;5136755;27;20303;-77
2021/08/16 04:56:03;;;;;;;8.37;3.50;;;;;;;;;;5136417;27;20271;-78
2021/08/16 04:58:30;;;;;;;8.73;3.93;;;;;;;;;;5136193;27;20251;-77
2021/08/16 05:00:58;;;;;;;7.27;3.60;;;;;;;;;;5136742;27;20836;-78
2021/08/16 05:03:27;;;;;;;7.17;3.60;;;;;;;;;;5136528;27;20250;-77
2021/08/16 05:05:55;;;;;;;6.17;3.90;;;;;;;;;;5136004;27;20283;-77
2021/08/16 05:08:22;;;;;;;6.73;3.63;;;;;;;;;;5136220;27;20220;-77
2021/08/16 05:10:52;;;;;;;7.00;3.83;;;;;;;;;;5136184;27;20589;-77
2021/08/16 05:13:19;;;;;;;7.43;3.47;;;;;;;;;;5136206;27;20207;-78
2021/08/16 05:15:47;;;;;;;8.37;3.90;;;;;;;;;;5136501;27;20236;-78
2021/08/16 05:18:14;;;;;;;7.43;3.93;;;;;;;;;;5136445;27;20229;-78
2021/08/16 05:20:42;;;;;;;9.67;4.20;;;;;;;;;;5136432;27;20192;-78
2021/08/16 05:23:09;;;;;;;9.37;3.90;;;;;;;;;;5115430;27;20567;-77
2021/08/16 05:25:36;;;;;;;9.97;4.17;;;;;;;;;;5115320;28;20238;-78
2021/08/16 05:28:05;;;;;;;6.83;4.00;;;;;;;;;;5115428;28;20198;-78
2021/08/16 05:30:32;;;;;;;7.47;4.03;;;;;;;;;;5115336;28;20289;-78
2021/08/16 05:32:59;;;;;;;8.13;4.13;;;;;;;;;;5115232;28;20248;-78
2021/08/16 05:35:26;;;;;;;9.10;3.83;;;;;;;;;;5115432;28;20209;-77
2021/08/16 05:37:55;;;;;;;8.87;4.07;;;;;;;;;;5114712;28;20297;-77
2021/08/16 05:40:22;;;;;;;11.20;4.23;;;;;;;;;;5114968;28;20201;-77
2021/08/16 05:42:49;;;;;;;6.37;3.93;;;;;;;;;;5115290;28;20335;-78
2021/08/16 05:45:18;;;;;;;8.07;4.13;;;;;;;;;;5113986;28;20649;-77
2021/08/16 05:47:45;;;;;;;8.33;4.10;;;;;;;;;;5115229;28;20301;-78
2021/08/16 05:50:13;;;;;;;7.43;3.90;;;;;;;;;;5114918;28;20756;-77
2021/08/16 05:52:40;;;;;;;7.20;4.10;;;;;;;;;;5114902;28;20661;-78
2021/08/16 05:55:08;;;;;;;9.30;4.37;;;;;;;;;;5114371;28;20319;-77
2021/08/16 05:57:35;;;;;;;9.83;3.90;;;;;;;;;;5115068;28;20197;-77
2021/08/16 06:00:02;;;;;;;9.40;3.93;;;;;;;;;;5114794;27;20296;-78
2021/08/16 06:02:33;;;;;;;8.93;4.53;;;;;;;;;;5115044;28;20260;-78
2021/08/16 06:05:01;;;;;;;7.50;3.93;;;;;;;;;;5115117;28;20201;-77
2021/08/16 06:07:28;;;;;;;7.60;4.10;;;;;;;;;;5114932;27;20225;-78
2021/08/16 06:09:55;;;;;;;8.27;4.30;;;;;;;;;;5114432;28;20304;-78
2021/08/16 06:12:22;;;;;;;7.17;4.50;;;;;;;;;;5114914;28;20221;-77
2021/08/16 06:14:50;;;;;;;6.37;4.27;;;;;;;;;;5114726;28;20285;-77
2021/08/16 06:17:17;;;;;;;8.13;4.20;;;;;;;;;;5114778;28;20289;-77
2021/08/16 06:19:46;;;;;;;8.47;4.07;;;;;;;;;;5114745;28;20292;-77
2021/08/16 06:22:13;;;;;;;7.90;4.43;;;;;;;;;;5126771;27;20220;-77
2021/08/16 06:24:41;;;;;;;6.10;4.03;;;;;;;;;;5134451;27;20283;-77
2021/08/16 06:27:08;;;;;;;7.97;4.30;;;;;;;;;;5134888;27;20201;-77
2021/08/16 06:29:35;;;;;;;8.00;4.00;;;;;;;;;;5134866;27;20288;-77
2021/08/16 06:32:02;;;;;;;7.97;4.17;;;;;;;;;;5134555;27;20660;-77
2021/08/16 06:34:29;;;;;;;8.90;4.67;;;;;;;;;;5134519;27;20698;-78
2021/08/16 06:36:58;;;;;;;9.37;4.63;;;;;;;;;;5134781;27;20197;-78
2021/08/16 06:39:28;;;;;;;7.93;4.33;;;;;;;;;;5134585;27;20205;-77
2021/08/16 06:41:55;;;;;;;7.97;4.73;;;;;;;;;;5134533;27;20728;-77
2021/08/16 06:44:23;;;;;;;8.23;4.33;;;;;;;;;;5134475;27;20291;-77
2021/08/16 06:46:51;;;;;;;8.57;4.60;;;;;;;;;;5134495;27;20610;-77
2021/08/16 06:49:19;;;;;;;8.80;4.17;;;;;;;;;;5133228;27;20289;-78
2021/08/16 06:51:46;;;;;;;8.40;4.10;;;;;;;;;;5134432;27;20285;-77
2021/08/16 06:54:14;;;;;;;8.17;3.80;;;;;;;;;;5134043;27;20233;-77
2021/08/16 06:56:41;;;;;;;7.37;3.60;;;;;;;;;;5134795;27;20193;-78
2021/08/16 06:59:09;;;;;;;6.83;3.40;;;;;;;;;;5133956;27;20231;-77
2021/08/16 07:01:36;;;;;;;9.73;3.80;;;;;;;;;;5134241;27;20307;-77
2021/08/16 07:04:03;;;;;;;6.30;3.20;;;;;;;;;;5134414;27;20192;-78
2021/08/16 07:06:31;;;;;;;8.30;3.10;;;;;;;;;;5134502;27;20299;-77
2021/08/16 07:08:58;;;;;;;9.50;3.20;;;;;;;;;;5133690;27;20225;-78
2021/08/16 07:11:26;;;;;;;11.23;3.30;;;;;;;;;;5134189;27;20284;-77
2021/08/16 07:13:53;;;;;;;8.07;3.40;;;;;;;;;;5133924;27;20288;-78
2021/08/16 07:16:23;;;;;;;13.40;3.10;;;;;;;;;;5133546;27;20434;-78
2021/08/16 07:18:50;;;;;;;11.13;3.23;;;;;;;;;;5134116;27;20253;-77
2021/08/16 07:21:17;;;;;;;11.63;3.30;;;;;;;;;;5133683;27;20296;-77
2021/08/16 07:23:44;;;;;;;9.37;3.30;;;;;;;;;;5133839;27;20254;-77
2021/08/16 07:26:11;;;;;;;7.10;2.77;;;;;;;;;;5133780;27;20288;-77
2021/08/16 07:28:41;;;;;;;7.70;3.80;;;;;;;;;;5133957;27;20201;-77
2021/08/16 07:31:08;;;;;;;9.37;2.87;;;;;;;;;;5133781;27;20291;-77
2021/08/16 07:33:36;;;;;;;10.70;3.13;;;;;;;;;;5133401;27;20292;-77
2021/08/16 07:36:03;;;;;;;6.77;2.57;;;;;;;;;;5133581;27;20199;-78
2021/08/16 07:38:30;;;;;;;6.53;3.03;;;;;;;;;;5133802;27;20292;-78
2021/08/16 07:40:57;;;;;;;5.13;2.40;;;;;;;;;;5133637;27;20288;-78
2021/08/16 07:43:24;;;;;;;6.63;2.40;;;;;;;;;;5133305;27;20861;-78
2021/08/16 07:45:53;;;;;;;6.43;2.20;;;;;;;;;;5133217;27;20299;-78
2021/08/16 07:48:20;;;;;;;6.47;2.13;;;;;;;;;;5133649;27;20197;-78
2021/08/16 07:50:47;;;;;;;4.75;1.90;;;;;;;;;;5133153;27;20292;-78
2021/08/16 07:53:14;;;;;;;5.10;2.20;;;;;;;;;;5133404;27;20193;-77
2021/08/16 07:55:43;;;;;;;6.57;2.17;;;;;;;;;;5133395;27;20328;-77
2021/08/16 07:58:10;;;;;;;5.25;2.22;;;;;;;;;;5133644;27;20603;-77
2021/08/16 08:00:37;;;;;;;4.30;1.70;;;;;;;;;;5132897;27;20709;-77
2021/08/16 08:03:06;;;;;;;3.97;2.00;;;;;;;;;;5133151;27;20676;-78
2021/08/16 08:05:33;;;;;;;7.53;1.95;;;;;;;;;;5132619;27;20204;-77
2021/08/16 08:08:01;;;;;;;6.72;2.10;;;;;;;;;;5133430;27;20192;-77
2021/08/16 08:10:28;;;;;;;5.38;1.90;;;;;;;;;;5132866;27;20196;-77
2021/08/16 08:12:56;;;;;;;6.32;1.80;;;;;;;;;;5133262;27;20240;-76
2021/08/16 08:15:23;;;;;;;4.03;1.92;;;;;;;;;;5133124;27;20287;-77
2021/08/16 08:17:50;;;;;;;6.93;1.92;;;;;;;;;;5133111;27;20292;-77
2021/08/16 08:20:19;;;;;;;6.47;2.10;;;;;;;;;;5133009;27;20251;-77
2021/08/16 08:22:46;;;;;;;5.80;2.20;;;;;;;;;;5133085;27;20329;-77
2021/08/16 08:25:13;;;;;;;4.20;1.70;;;;;;;;;;5133408;27;20233;-77
2021/08/16 08:27:40;;;;;;;5.05;2.00;;;;;;;;;;5133034;27;20265;-77
2021/08/16 08:30:08;;;;;;;5.32;2.10;;;;;;;;;;5133031;27;20207;-76
2021/08/16 08:32:44;;;;;;;5.38;1.90;;;;;;;;;;5132766;27;20284;-77
2021/08/16 08:35:11;;;;;;;3.95;2.00;;;;;;;;;;5133045;27;20291;-77
2021/08/16 08:37:40;;;;;;;4.25;2.08;;;;;;;;;;5133426;27;20378;-77
2021/08/16 08:40:09;;;;;;;3.75;1.80;;;;;;;;;;5133119;27;20293;-77
2021/08/16 08:42:37;;;;;;;5.15;1.77;;;;;;;;;;5132887;27;20304;-77
2021/08/16 08:45:05;;;;;;;6.55;2.15;;;;;;;;;;5133200;27;20207;-77
2021/08/16 08:47:33;;;;;;;5.22;2.33;;;;;;;;;;5133001;27;20289;-77
2021/08/16 08:50:00;;;;;;;5.28;1.92;;;;;;;;;;5132570;27;20541;-77
2021/08/16 08:52:27;;;;;;;5.03;1.90;;;;;;;;;;5132829;27;20751;-77
2021/08/16 08:54:56;;;;;;;5.47;1.95;;;;;;;;;;5132676;27;20686;-77
2021/08/16 08:57:27;;;;;;;6.75;2.17;;;;;;;;;;5132707;27;20227;-78
2021/08/16 08:59:54;;;;;;;5.15;2.30;;;;;;;;;;5133291;27;20254;-77
2021/08/16 09:02:22;;;;;;;3.95;2.05;;;;;;;;;;5132524;27;20268;-77
2021/08/16 09:04:53;;;;;;;6.95;1.95;;;;;;;;;;5132591;27;20240;-77
2021/08/16 09:07:30;;;;;;;6.13;2.20;;;;;;;;;;5133034;27;20232;-77
2021/08/16 09:09:59;;;;;;;6.63;2.30;;;;;;;;;;5132548;27;20613;-77
2021/08/16 09:12:31;;;;;;;5.32;2.10;;;;;;;;;;5134747;27;20193;-77
2021/08/16 09:14:58;;;;;;;6.53;2.30;;;;;;;;;;5136123;27;20233;-77
2021/08/16 09:17:29;;;;;;;4.93;1.98;;;;;;;;;;5136121;27;20664;-77
2021/08/16 09:19:56;;;;;;;5.13;2.35;;;;;;;;;;5136507;27;20235;-77
2021/08/16 09:22:31;;;;;;;6.93;2.03;;;;;;;;;;5135916;27;20229;-77
2021/08/16 09:25:05;;;;;;;6.80;2.30;;;;;;;;;;5136789;27;20200;-77
2021/08/16 09:27:32;;;;;;;4.53;1.80;;;;;;;;;;5136376;27;20200;-77
2021/08/16 09:29:59;;;;;;;4.57;2.08;;;;;;;;;;5136265;27;20280;-77
2021/08/16 09:32:36;;;;;;;4.75;2.00;;;;;;;;;;5135731;27;20199;-78
2021/08/16 09:35:07;;;;;;;4.30;1.95;;;;;;;;;;5136072;27;20723;-77
2021/08/16 09:37:35;;;;;;;4.90;2.00;;;;;;;;;;5135900;27;20292;-77
2021/08/16 09:40:06;;;;;;;5.10;2.30;;;;;;;;;;5136240;27;20288;-77
2021/08/16 09:42:48;;;;;;;5.80;2.25;;;;;;;;;;5136174;27;20319;-77
2021/08/16 09:45:16;;;;;;;5.53;2.28;;;;;;;;;;5133585;27;20288;-77
2021/08/16 09:47:44;;;;;;;6.35;2.38;;;;;;;;;;5135110;27;20664;-77
2021/08/16 09:50:12;;;;;;;5.40;2.08;;;;;;;;;;5136062;27;20602;-77
2021/08/16 09:52:40;;;;;;;6.65;2.42;;;;;;;;;;5135790;27;20197;-77
2021/08/16 09:55:09;;;;;;;7.20;2.70;;;;;;;;;;5135496;27;20235;-77
2021/08/16 09:57:36;;;;;;;6.75;2.42;;;;;;;;;;5135602;27;20201;-77
2021/08/16 10:00:04;;;;;;;5.45;2.20;;;;;;;;;;5135517;27;20287;-77
2021/08/16 10:02:31;;;;;;;5.25;2.20;;;;;;;;;;5135101;27;20583;-78
2021/08/16 10:04:59;;;;;;;3.33;1.95;;;;;;;;;;5135584;27;20288;-77
2021/08/16 10:07:28;;;;;;;4.95;1.95;;;;;;;;;;5135226;27;20759;-77
2021/08/16 10:09:57;;;;;;;4.45;2.20;;;;;;;;;;5135542;27;20221;-77
2021/08/16 10:12:26;;;;;;;4.82;2.20;;;;;;;;;;5135456;27;20189;-78
2021/08/16 10:14:53;;;;;;;4.57;2.00;;;;;;;;;;5135427;27;20203;-77
2021/08/16 10:17:22;;;;;;;4.13;2.38;;;;;;;;;;5134471;27;20292;-77
2021/08/16 10:19:52;;;;;;;4.45;2.63;;;;;;;;;;5135073;27;20307;-77
2021/08/16 10:22:19;;;;;;;4.70;2.72;;;;;;;;;;5121537;27;20212;-77
2021/08/16 10:24:46;;;;;;;4.18;2.42;;;;;;;;;;5114399;28;20288;-77
2021/08/16 10:27:13;;;;;;;6.93;2.60;;;;;;;;;;5114446;28;20292;-77
2021/08/16 10:29:42;;;;;;;4.10;2.55;;;;;;;;;;5114167;28;20677;-77
2021/08/16 10:32:18;;;;;;;4.57;2.75;;;;;;;;;;5114661;28;20202;-77
2021/08/16 10:34:46;;;;;;;5.38;2.80;;;;;;;;;;5113287;28;20201;-77
2021/08/16 10:37:15;;;;;;;5.18;2.80;;;;;;;;;;5114054;28;20744;-77
2021/08/16 10:39:43;;;;;;;5.57;2.55;;;;;;;;;;5114437;28;20213;-77
2021/08/16 10:42:11;;;;;;;6.03;3.13;;;;;;;;;;5114199;28;20289;-77
2021/08/16 10:44:39;;;;;;;5.32;2.70;;;;;;;;;;5113451;28;20233;-77
2021/08/16 10:47:08;;;;;;;5.25;2.90;;;;;;;;;;5114015;28;20208;-77
2021/08/16 10:49:37;;;;;;;5.43;2.60;;;;;;;;;;5113953;28;20206;-77
2021/08/16 10:52:05;;;;;;;4.95;2.58;;;;;;;;;;5113964;28;20628;-77
2021/08/16 10:54:34;;;;;;;5.30;2.50;;;;;;;;;;5113518;28;20791;-77
2021/08/16 10:57:02;;;;;;;4.47;2.92;;;;;;;;;;5113464;28;20225;-77
2021/08/16 10:59:30;;;;;;;4.68;3.00;;;;;;;;;;5113351;28;20560;-78
2021/08/16 11:01:58;;;;;;;5.15;3.10;;;;;;;;;;5113789;28;20675;-78
2021/08/16 11:04:30;;;;;;;5.93;2.90;;;;;;;;;;5113412;28;20308;-77
2021/08/16 11:06:59;;;;;;;4.90;3.00;;;;;;;;;;5113737;28;20281;-77
2021/08/16 11:09:27;;;;;;;4.25;3.15;;;;;;;;;;5113462;28;20229;-77
2021/08/16 11:12:00;;;;;;;4.93;3.05;;;;;;;;;;5113245;28;20300;-78
2021/08/16 11:14:27;;;;;;;5.47;3.25;;;;;;;;;;5113162;28;20761;-77
2021/08/16 11:16:55;;;;;;;6.65;3.20;;;;;;;;;;5113272;28;20284;-77
2021/08/16 11:19:23;;;;;;;6.35;3.28;;;;;;;;;;5113267;28;20308;-76
2021/08/16 11:21:55;;;;;;;5.07;3.13;;;;;;;;;;5121997;27;20236;-78
2021/08/16 11:24:30;;;;;;;6.00;2.95;;;;;;;;;;5133564;27;20429;-77
2021/08/16 11:26:58;;;;;;;5.07;3.00;;;;;;;;;;5133464;27;20302;-77
2021/08/16 11:29:26;;;;;;;5.90;3.08;;;;;;;;;;5133651;27;20283;-77
2021/08/16 11:31:58;;;;;;;4.00;2.92;;;;;;;;;;5133536;27;20240;-77
2021/08/16 11:34:26;;;;;;;5.85;3.15;;;;;;;;;;5132692;27;20261;-77
2021/08/16 11:36:54;;;;;;;6.03;3.42;;;;;;;;;;5133326;27;20205;-77
2021/08/16 11:39:32;;;;;;;5.63;3.30;;;;;;;;;;5132439;27;20197;-77
2021/08/16 11:42:00;;;;;;;5.40;3.08;;;;;;;;;;5133406;27;20236;-78
2021/08/16 11:44:27;;;;;;;4.80;2.92;;;;;;;;;;5132813;27;20602;-77
2021/08/16 11:46:54;;;;;;;5.85;3.50;;;;;;;;;;5133064;27;20551;-77
2021/08/16 11:49:22;;;;;;;5.72;3.40;;;;;;;;;;5133289;27;20231;-77
2021/08/16 11:51:49;;;;;;;5.97;3.38;;;;;;;;;;5133230;27;20232;-77
2021/08/16 11:54:26;;;;;;;6.90;3.42;;;;;;;;;;5133381;27;20311;-77
2021/08/16 11:56:54;;;;;;;5.15;3.00;;;;;;;;;;5132938;27;20196;-77
2021/08/16 11:59:21;;;;;;;6.38;3.40;;;;;;;;;;5133180;27;20610;-77
2021/08/16 12:01:48;;;;;;;6.22;3.33;;;;;;;;;;5132809;27;20690;-77
2021/08/16 12:04:15;;;;;;;5.70;3.05;;;;;;;;;;5133372;27;20319;-77
2021/08/16 12:06:43;;;;;;;4.75;3.10;;;;;;;;;;5133328;27;20205;-77
2021/08/16 12:09:11;;;;;;;5.47;3.08;;;;;;;;;;5133041;27;20304;-78
2021/08/16 12:11:40;;;;;;;5.30;3.20;;;;;;;;;;5132899;27;20580;-78
2021/08/16 12:14:07;;;;;;;5.63;3.03;;;;;;;;;;5132943;27;20645;-77
2021/08/16 12:16:35;;;;;;;4.78;2.97;;;;;;;;;;5132928;27;20197;-77
2021/08/16 12:19:03;;;;;;;5.00;2.83;;;;;;;;;;5131928;27;20399;-77
2021/08/16 12:21:31;;;;;;;6.70;3.50;;;;;;;;;;5126672;27;20213;-77
2021/08/16 12:23:58;;;;;;;6.22;3.22;;;;;;;;;;5112220;28;20312;-77
2021/08/16 12:26:30;;;;;;;4.38;2.75;;;;;;;;;;5112189;28;20219;-77
2021/08/16 12:28:58;;;;;;;7.35;3.25;;;;;;;;;;5112850;28;20280;-77
2021/08/16 12:31:27;;;;;;;6.18;3.10;;;;;;;;;;5112434;28;20292;-77
2021/08/16 12:33:55;;;;;;;7.50;3.15;;;;;;;;;;5112322;28;20194;-77
2021/08/16 12:36:24;;;;;;;5.30;2.80;;;;;;;;;;5112674;28;20296;-77
2021/08/16 12:38:56;;;;;;;4.80;3.00;;;;;;;;;;5112602;28;20292;-77
2021/08/16 12:41:24;;;;;;;6.35;3.08;;;;;;;;;;5112207;28;20208;-77
2021/08/16 12:43:52;;;;;;;7.30;2.80;;;;;;;;;;5112517;28;20221;-77
2021/08/16 12:46:29;;;;;;;3.58;2.60;;;;;;;;;;5114316;28;20596;-77
2021/08/16 12:48:57;;;;;;;6.05;2.78;;;;;;;;;;5116194;28;20677;-78
2021/08/16 12:51:24;;;;;;;5.90;2.60;;;;;;;;;;5116228;28;20296;-77
2021/08/16 12:53:52;;;;;;;4.72;2.65;;;;;;;;;;5116302;28;20190;-77
2021/08/16 12:56:19;;;;;;;4.13;2.90;;;;;;;;;;5116222;28;20202;-77
2021/08/16 12:58:46;;;;;;;5.55;3.10;;;;;;;;;;5116310;28;20194;-76
2021/08/16 13:01:19;;;;;;;5.60;2.95;;;;;;;;;;5116427;28;20289;-77
2021/08/16 13:03:48;;;;;;;6.82;2.97;;;;;;;;;;5115973;28;20217;-77
2021/08/16 13:06:15;;;;;;;5.60;2.55;;;;;;;;;;5116182;28;20281;-77
2021/08/16 13:08:43;;;;;;;5.65;3.08;;;;;;;;;;5116117;28;20224;-77
2021/08/16 13:11:11;;;;;;;5.65;2.80;;;;;;;;;;5115807;28;20580;-76
2021/08/16 13:13:38;;;;;;;5.35;2.65;;;;;;;;;;5115674;28;20664;-77
2021/08/16 13:16:05;;;;;;;6.63;3.20;;;;;;;;;;5116069;28;20292;-76
2021/08/16 13:18:33;;;;;;;6.32;2.55;;;;;;;;;;5115924;28;20296;-76
2021/08/16 13:21:02;;;;;;;6.50;2.65;;;;;;;;;;5115708;28;20212;-77
2021/08/16 13:23:29;;;;;;;5.72;2.67;;;;;;;;;;5115464;28;20256;-76
2021/08/16 13:25:57;;;;;;;5.55;2.65;;;;;;;;;;5115163;28;20202;-76
2021/08/16 13:28:25;;;;;;;4.95;2.33;;;;;;;;;;5115728;27;20284;-77
2021/08/16 13:30:52;;;;;;;8.25;2.78;;;;;;;;;;5115773;28;20255;-78
2021/08/16 13:33:19;;;;;;;8.18;3.20;;;;;;;;;;5115784;28;20297;-77
2021/08/16 13:35:46;;;;;;;6.88;2.90;;;;;;;;;;5115812;28;20281;-77
2021/08/16 13:38:15;;;;;;;7.93;2.45;;;;;;;;;;5115883;28;20198;-77
2021/08/16 13:40:42;;;;;;;5.60;2.92;;;;;;;;;;5115194;28;20285;-77
2021/08/16 13:43:09;;;;;;;7.13;3.00;;;;;;;;;;5115251;27;20297;-77
2021/08/16 13:45:37;;;;;;;5.45;2.90;;;;;;;;;;5115633;28;20716;-77
2021/08/16 13:48:04;;;;;;;5.90;3.10;;;;;;;;;;5115382;28;20285;-77
2021/08/16 13:50:32;;;;;;;6.80;3.13;;;;;;;;;;5115230;28;20685;-77
2021/08/16 13:52:59;;;;;;;5.55;3.03;;;;;;;;;;5114698;28;20210;-76
2021/08/16 13:55:27;;;;;;;7.70;3.47;;;;;;;;;;5114819;27;20736;-76
2021/08/16 13:57:55;;;;;;;5.78;3.55;;;;;;;;;;5114577;28;20262;-76
2021/08/16 14:00:22;;;;;;;5.50;3.90;;;;;;;;;;5114887;28;20663;-76
2021/08/16 14:02:49;;;;;;;6.40;3.95;;;;;;;;;;5115028;28;20632;-76
2021/08/16 14:05:16;;;;;;;7.55;4.07;;;;;;;;;;5114881;28;20232;-76
2021/08/16 14:07:43;;;;;;;6.88;3.85;;;;;;;;;;5114587;28;20256;-76
2021/08/16 14:10:12;;;;;;;6.22;3.78;;;;;;;;;;5114913;28;20223;-76
2021/08/16 14:12:43;;;;;;;6.28;4.00;;;;;;;;;;5114595;28;20198;-77
2021/08/16 14:15:11;;;;;;;6.82;4.28;;;;;;;;;;5115115;28;20522;-76
2021/08/16 14:17:38;;;;;;;6.28;4.32;;;;;;;;;;5114651;28;20198;-76
2021/08/16 14:20:07;;;;;;;9.85;3.97;;;;;;;;;;5114670;28;20618;-76
2021/08/16 14:22:35;;;;;;;8.75;4.88;;;;;;;;;;5113854;28;20300;-76
2021/08/16 14:25:02;;;;;;;10.90;4.65;;;;;;;;;;5114023;28;20647;-78
2021/08/16 14:27:30;;;;;;;8.27;5.10;;;;;;;;;;5113904;28;20575;-79
2021/08/16 14:29:59;;;;;;;6.90;4.75;;;;;;;;;;5114050;28;20647;-78
2021/08/16 14:32:26;;;;;;;7.43;4.80;;;;;;;;;;5114398;28;20205;-78
2021/08/16 14:34:53;;;;;;;7.03;5.40;;;;;;;;;;5114156;28;20289;-78
2021/08/16 14:37:20;;;;;;;12.85;5.90;;;;;;;;;;5113718;28;20205;-78
2021/08/16 14:39:48;;;;;;;7.35;5.03;;;;;;;;;;5113852;28;20717;-79
2021/08/16 14:42:15;;;;;;;6.75;4.65;;;;;;;;;;5114369;28;20289;-79
2021/08/16 14:44:42;;;;;;;8.63;5.72;;;;;;;;;;5114017;28;20312;-78
2021/08/16 14:47:11;;;;;;;8.73;5.40;;;;;;;;;;5113855;28;20289;-78